Saint Louis, Missouri
Traffic Map
Current Weather Conditions
Saint Louis, Missouri
Scattered Clouds
Scattered Clouds
32°
Feels Like: 37°
Wind Chill: 32° Ceiling: Unl
Heat Index: 37° Visibility: 10mi
Dew Point: 23° Wind: 7mph
Humidity: 59% Direction: 150° (SSE)
Pressure: 29.92in Gusts: 0mph
Raw Report DataKCPS 272053Z 15006KT 10SM SCT035 32/23 A2992 RMK AO2 SLP127 T03220233 56023
Traffic Incident Summary
Active as of:
Severity:
Category:
InformationThere was an issue retrieving the traffic information for this location. Please try a different location or try again shortly.
Advertisements
Track Severe Weather on mobile